Time;durP1;ratioP1;P1;durP2;ratioP2;P2;SDS_P1;SDS_P2;PMS_P1;PMS_P2;Temp;Humidity;BMP_temperature;BMP_pressure;BME280_temperature;BME280_humidity;BME280_pressure;Samples;Min_cycle;Max_cycle;Signal;HPM_P1;HPM_P2
2022/05/16 00:00:18;;;;;;;7.10;4.70;;;;;;;;;;764232;183;937490;-65
2022/05/16 00:02:44;;;;;;;7.03;4.63;;;;;;;;;;761233;183;918664;-65
2022/05/16 00:05:10;;;;;;;8.67;4.87;;;;;;;;;;757607;183;919397;-64
2022/05/16 00:07:36;;;;;;;11.13;4.57;;;;;;;;;;754474;183;923308;-64
2022/05/16 00:10:02;;;;;;;6.67;4.33;;;;;;;;;;764100;183;918738;-64
2022/05/16 00:12:27;;;;;;;7.37;4.80;;;;;;;;;;761479;183;918751;-65
2022/05/16 00:14:53;;;;;;;6.53;4.60;;;;;;;;;;757091;183;919248;-64
2022/05/16 00:17:19;;;;;;;11.40;5.37;;;;;;;;;;762932;184;919740;-64
2022/05/16 00:19:45;;;;;;;6.90;4.47;;;;;;;;;;756654;183;1021299;-64
2022/05/16 00:22:11;;;;;;;7.90;4.87;;;;;;;;;;759057;184;919075;-64
2022/05/16 00:24:38;;;;;;;7.10;4.50;;;;;;;;;;762996;183;918826;-64
2022/05/16 00:27:04;;;;;;;7.20;4.70;;;;;;;;;;747174;185;919299;-64
2022/05/16 00:29:30;;;;;;;8.70;5.10;;;;;;;;;;758721;183;928374;-64
2022/05/16 00:31:56;;;;;;;10.73;5.83;;;;;;;;;;756231;183;919353;-64
2022/05/16 00:34:22;;;;;;;10.47;5.50;;;;;;;;;;764249;184;919473;-64
2022/05/16 00:36:48;;;;;;;8.40;5.30;;;;;;;;;;758600;183;919481;-65
2022/05/16 00:39:13;;;;;;;8.87;6.20;;;;;;;;;;755677;183;919500;-64
2022/05/16 00:41:39;;;;;;;8.10;6.40;;;;;;;;;;756140;183;990765;-64
2022/05/16 00:44:05;;;;;;;8.50;5.70;;;;;;;;;;757246;184;919625;-64
2022/05/16 00:46:31;;;;;;;10.47;6.20;;;;;;;;;;758390;183;1021760;-64
2022/05/16 00:48:57;;;;;;;17.97;6.40;;;;;;;;;;762497;183;919698;-64
2022/05/16 00:51:23;;;;;;;10.87;6.93;;;;;;;;;;757217;183;918959;-64
2022/05/16 00:53:49;;;;;;;8.60;5.50;;;;;;;;;;758412;183;919026;-64
2022/05/16 00:56:14;;;;;;;10.32;5.45;;;;;;;;;;759708;183;919178;-64
2022/05/16 00:58:41;;;;;;;11.87;5.87;;;;;;;;;;755473;185;919290;-64
2022/05/16 01:04:47;;;;;;;15.93;6.30;;;;;;;;;;755660;183;919672;-64
2022/05/16 01:06:03;;;;;;;8.95;6.03;;;;;;;;;;765788;183;919717;-64
2022/05/16 01:08:30;;;;;;;8.00;5.60;;;;;;;;;;757503;183;919287;-64
2022/05/16 01:10:55;;;;;;;8.53;6.27;;;;;;;;;;758526;183;912220;-64
2022/05/16 01:13:24;;;;;;;6.95;5.43;;;;;;;;;;763099;183;943169;-64
2022/05/16 01:15:50;;;;;;;7.87;5.47;;;;;;;;;;754560;185;918961;-64
2022/05/16 01:18:15;;;;;;;6.83;4.90;;;;;;;;;;754048;184;915273;-64
2022/05/16 01:20:44;;;;;;;9.80;5.27;;;;;;;;;;754104;183;915844;-65
2022/05/16 01:23:10;;;;;;;5.40;4.53;;;;;;;;;;759139;184;919506;-64
2022/05/16 01:25:36;;;;;;;6.20;4.90;;;;;;;;;;758181;183;1021735;-64
2022/05/16 01:28:04;;;;;;;9.03;5.70;;;;;;;;;;749866;185;919432;-64
2022/05/16 01:30:27;;;;;;;8.07;4.77;;;;;;;;;;764530;183;919273;-65
2022/05/16 01:32:53;;;;;;;13.13;6.83;;;;;;;;;;758792;183;919149;-64
2022/05/16 01:35:19;;;;;;;12.83;7.33;;;;;;;;;;757944;183;919768;-64
2022/05/16 01:40:17;;;;;;;10.00;6.97;;;;;;;;;;762473;183;919838;-65
2022/05/16 01:42:42;;;;;;;10.53;7.10;;;;;;;;;;759761;183;919235;-64
2022/05/16 01:45:09;;;;;;;10.37;6.80;;;;;;;;;;756118;183;918837;-64
2022/05/16 01:47:34;;;;;;;8.70;7.60;;;;;;;;;;758779;184;919302;-64
2022/05/16 01:50:00;;;;;;;12.63;8.60;;;;;;;;;;754929;183;923981;-65
2022/05/16 01:52:26;;;;;;;14.07;7.97;;;;;;;;;;748584;184;1021172;-64
2022/05/16 01:54:52;;;;;;;12.37;8.10;;;;;;;;;;757231;183;919701;-64
2022/05/16 01:57:18;;;;;;;11.47;6.13;;;;;;;;;;763477;183;919047;-65
2022/05/16 01:59:44;;;;;;;10.40;5.13;;;;;;;;;;753141;184;918429;-65
2022/05/16 02:02:10;;;;;;;6.50;5.40;;;;;;;;;;756972;184;919384;-65
2022/05/16 02:04:35;;;;;;;5.73;4.17;;;;;;;;;;760746;183;918995;-65
2022/05/16 02:07:01;;;;;;;8.10;4.13;;;;;;;;;;757646;183;919609;-65
2022/05/16 02:09:27;;;;;;;6.10;4.87;;;;;;;;;;759464;183;924594;-65
2022/05/16 02:11:53;;;;;;;5.40;4.67;;;;;;;;;;762926;183;897945;-65
2022/05/16 02:14:19;;;;;;;6.07;4.80;;;;;;;;;;756585;182;928105;-65
2022/05/16 02:16:46;;;;;;;7.40;5.47;;;;;;;;;;761317;183;920689;-65
2022/05/16 02:19:10;;;;;;;7.67;5.30;;;;;;;;;;759201;183;920563;-65
2022/05/16 02:24:39;;;;;;;10.07;5.27;;;;;;;;;;754192;182;923282;-65
2022/05/16 02:26:49;;;;;;;8.10;5.27;;;;;;;;;;753810;183;931931;-65
2022/05/16 02:29:15;;;;;;;6.15;5.15;;;;;;;;;;758043;183;1023192;-66
2022/05/16 02:31:40;;;;;;;9.43;5.27;;;;;;;;;;761823;183;920432;-66
2022/05/16 02:34:06;;;;;;;8.00;5.00;;;;;;;;;;758453;183;920563;-65
2022/05/16 02:36:32;;;;;;;9.83;6.70;;;;;;;;;;753059;183;918994;-67
2022/05/16 02:38:58;;;;;;;10.33;7.20;;;;;;;;;;765743;183;1198174;-65
2022/05/16 02:41:24;;;;;;;13.80;8.70;;;;;;;;;;755344;183;1024598;-65
2022/05/16 02:43:50;;;;;;;13.93;9.13;;;;;;;;;;753652;183;1119636;-65
2022/05/16 02:46:15;;;;;;;15.00;10.23;;;;;;;;;;756026;183;916683;-65
2022/05/16 02:48:41;;;;;;;13.90;9.50;;;;;;;;;;763761;183;1178619;-65
2022/05/16 02:51:07;;;;;;;14.20;9.03;;;;;;;;;;766068;184;919347;-65
2022/05/16 02:53:33;;;;;;;11.63;8.53;;;;;;;;;;751675;184;912975;-65
2022/05/16 02:55:59;;;;;;;14.83;9.43;;;;;;;;;;762923;183;912024;-65
2022/05/16 02:58:25;;;;;;;18.87;9.90;;;;;;;;;;756657;183;918821;-65
2022/05/16 03:00:50;;;;;;;12.13;9.67;;;;;;;;;;755106;183;921915;-64
2022/05/16 03:03:16;;;;;;;17.33;11.60;;;;;;;;;;765013;183;934004;-64
2022/05/16 03:05:42;;;;;;;13.77;10.60;;;;;;;;;;756668;183;928733;-65
2022/05/16 03:08:08;;;;;;;16.17;10.37;;;;;;;;;;758118;183;924949;-64
2022/05/16 03:10:34;;;;;;;20.50;10.85;;;;;;;;;;755395;183;919170;-64
2022/05/16 03:13:00;;;;;;;17.63;10.30;;;;;;;;;;756570;184;918926;-65
2022/05/16 03:15:29;;;;;;;15.10;9.87;;;;;;;;;;755991;183;919645;-65
2022/05/16 03:17:52;;;;;;;20.17;11.17;;;;;;;;;;758432;183;919494;-65
2022/05/16 03:20:19;;;;;;;11.97;10.67;;;;;;;;;;760707;183;920356;-65
2022/05/16 03:22:44;;;;;;;13.40;10.37;;;;;;;;;;754983;183;922088;-65
2022/05/16 03:25:10;;;;;;;18.10;10.30;;;;;;;;;;756912;182;1021772;-65
2022/05/16 03:27:36;;;;;;;19.53;10.27;;;;;;;;;;767537;182;913644;-65
2022/05/16 03:30:01;;;;;;;25.73;12.40;;;;;;;;;;759796;183;937647;-65
2022/05/16 03:32:28;;;;;;;12.40;9.77;;;;;;;;;;760452;183;919079;-66
2022/05/16 03:34:54;;;;;;;16.30;10.40;;;;;;;;;;757647;183;919359;-65
2022/05/16 03:37:20;;;;;;;13.67;9.73;;;;;;;;;;757249;185;919737;-66
2022/05/16 03:42:17;;;;;;;22.35;11.70;;;;;;;;;;756888;183;1020267;-65
2022/05/16 03:44:43;;;;;;;21.23;11.93;;;;;;;;;;763806;183;919198;-65
2022/05/16 03:47:09;;;;;;;32.80;10.83;;;;;;;;;;748516;184;918883;-67
2022/05/16 03:49:35;;;;;;;19.30;11.13;;;;;;;;;;759092;184;919746;-65
2022/05/16 03:52:02;;;;;;;24.20;11.95;;;;;;;;;;761760;184;919793;-66
2022/05/16 03:54:27;;;;;;;17.27;10.60;;;;;;;;;;769685;183;920235;-66
2022/05/16 03:56:53;;;;;;;20.33;11.30;;;;;;;;;;758074;183;919539;-65
2022/05/16 03:59:19;;;;;;;18.47;10.53;;;;;;;;;;757610;184;919134;-65
2022/05/16 04:01:45;;;;;;;17.33;10.27;;;;;;;;;;762355;183;918946;-66
2022/05/16 04:04:10;;;;;;;17.37;10.07;;;;;;;;;;758339;184;977857;-66
2022/05/16 04:06:37;;;;;;;13.18;10.23;;;;;;;;;;757880;183;919452;-66
2022/05/16 04:09:02;;;;;;;19.93;10.43;;;;;;;;;;761494;183;918318;-65
2022/05/16 04:11:28;;;;;;;13.07;10.10;;;;;;;;;;756013;184;919560;-66
2022/05/16 04:13:54;;;;;;;15.80;10.00;;;;;;;;;;761663;184;626687;-66
2022/05/16 04:16:20;;;;;;;20.33;10.30;;;;;;;;;;763846;183;625053;-65
2022/05/16 04:18:46;;;;;;;14.83;9.07;;;;;;;;;;755544;184;629884;-67
2022/05/16 04:21:11;;;;;;;15.17;9.77;;;;;;;;;;760043;184;626567;-66
2022/05/16 04:23:37;;;;;;;14.37;9.40;;;;;;;;;;756478;185;870679;-65
2022/05/16 04:26:03;;;;;;;13.80;10.23;;;;;;;;;;757614;185;625066;-66
2022/05/16 04:28:29;;;;;;;14.90;9.50;;;;;;;;;;758110;184;638610;-66
2022/05/16 04:30:55;;;;;;;13.70;9.80;;;;;;;;;;760270;184;629461;-65
2022/05/16 04:33:21;;;;;;;17.55;8.90;;;;;;;;;;762290;183;919075;-67
2022/05/16 04:35:48;;;;;;;14.70;10.00;;;;;;;;;;757714;183;919421;-67
2022/05/16 04:38:14;;;;;;;15.13;9.20;;;;;;;;;;754993;184;919652;-65
2022/05/16 04:42:40;;;;;;;12.80;8.20;;;;;;;;;;755835;184;919500;-66
2022/05/16 04:43:06;;;;;;;12.25;8.48;;;;;;;;;;754504;183;919110;-66
2022/05/16 04:45:31;;;;;;;13.83;8.40;;;;;;;;;;759807;183;918275;-66
2022/05/16 04:47:57;;;;;;;11.03;7.03;;;;;;;;;;756985;183;963998;-66
2022/05/16 04:50:23;;;;;;;16.17;8.20;;;;;;;;;;763323;183;927851;-65
2022/05/16 04:52:49;;;;;;;13.97;7.70;;;;;;;;;;750591;183;919136;-67
2022/05/16 04:55:15;;;;;;;15.32;7.65;;;;;;;;;;757527;183;920675;-67
2022/05/16 04:57:40;;;;;;;10.20;6.83;;;;;;;;;;762503;183;921612;-66
2022/05/16 05:00:07;;;;;;;10.40;6.10;;;;;;;;;;757399;183;919896;-66
2022/05/16 05:02:33;;;;;;;11.48;6.28;;;;;;;;;;755844;184;1021740;-65
2022/05/16 05:05:00;;;;;;;11.02;6.70;;;;;;;;;;764086;183;919522;-66
2022/05/16 05:07:25;;;;;;;9.37;6.73;;;;;;;;;;757769;183;919150;-65
2022/05/16 05:14:54;;;;;;;10.60;6.23;;;;;;;;;;762889;183;918940;-65
2022/05/16 05:17:21;;;;;;;11.27;6.40;;;;;;;;;;758906;183;919504;-65
2022/05/16 05:19:46;;;;;;;11.70;7.60;;;;;;;;;;755327;184;923862;-65
2022/05/16 05:22:13;;;;;;;10.47;6.90;;;;;;;;;;757934;183;919477;-65
2022/05/16 05:24:38;;;;;;;13.73;6.63;;;;;;;;;;763072;183;919261;-65
2022/05/16 05:27:04;;;;;;;12.03;7.07;;;;;;;;;;756678;184;919796;-64
2022/05/16 05:29:30;;;;;;;13.95;6.90;;;;;;;;;;756361;183;919334;-66
2022/05/16 05:31:56;;;;;;;12.93;6.67;;;;;;;;;;761473;183;964857;-65
2022/05/16 05:34:22;;;;;;;11.93;6.63;;;;;;;;;;756484;183;918943;-65
2022/05/16 05:36:48;;;;;;;8.90;6.05;;;;;;;;;;749912;184;919549;-66
2022/05/16 05:39:16;;;;;;;11.10;5.80;;;;;;;;;;762731;184;1020598;-65
2022/05/16 05:41:40;;;;;;;9.40;6.67;;;;;;;;;;756581;184;920587;-66
2022/05/16 05:44:06;;;;;;;10.57;5.90;;;;;;;;;;750459;184;919659;-66
2022/05/16 05:46:33;;;;;;;8.87;5.77;;;;;;;;;;756217;183;1096110;-66
2022/05/16 05:48:59;;;;;;;8.67;5.67;;;;;;;;;;763732;183;918098;-65
2022/05/16 05:51:25;;;;;;;10.23;6.70;;;;;;;;;;760679;183;932842;-66
2022/05/16 05:53:51;;;;;;;10.55;6.18;;;;;;;;;;749461;183;921271;-66
2022/05/16 05:56:16;;;;;;;10.90;5.10;;;;;;;;;;763090;183;915769;-65
2022/05/16 05:58:43;;;;;;;10.03;5.80;;;;;;;;;;755584;183;1016847;-66
2022/05/16 06:01:08;;;;;;;7.70;4.72;;;;;;;;;;754192;183;916038;-67
2022/05/16 06:03:34;;;;;;;8.80;5.47;;;;;;;;;;762370;183;1016417;-66
2022/05/16 06:06:00;;;;;;;8.20;5.23;;;;;;;;;;758501;183;933257;-66
2022/05/16 06:08:26;;;;;;;9.53;5.47;;;;;;;;;;758631;183;919192;-67
2022/05/16 06:10:52;;;;;;;8.00;5.47;;;;;;;;;;756528;183;1021547;-66
2022/05/16 06:13:17;;;;;;;8.50;5.50;;;;;;;;;;762214;184;917768;-68
2022/05/16 06:15:43;;;;;;;10.07;5.60;;;;;;;;;;758794;183;920968;-68
2022/05/16 06:18:09;;;;;;;12.13;5.87;;;;;;;;;;759122;184;919733;-68
2022/05/16 06:20:35;;;;;;;8.43;4.80;;;;;;;;;;767058;183;620391;-68
2022/05/16 06:23:01;;;;;;;9.40;4.73;;;;;;;;;;757440;184;919173;-68
2022/05/16 06:25:32;;;;;;;17.00;5.50;;;;;;;;;;759577;183;918180;-68
2022/05/16 06:27:58;;;;;;;10.80;6.17;;;;;;;;;;759792;183;922676;-69
2022/05/16 06:30:24;;;;;;;11.23;5.80;;;;;;;;;;754258;184;922669;-68
2022/05/16 06:32:50;;;;;;;16.43;6.63;;;;;;;;;;754863;183;919681;-69
2022/05/16 06:35:16;;;;;;;11.53;6.20;;;;;;;;;;756840;183;943992;-69
2022/05/16 06:37:42;;;;;;;8.87;5.10;;;;;;;;;;763072;183;917814;-69
2022/05/16 06:40:08;;;;;;;10.53;5.20;;;;;;;;;;755069;184;919702;-70
2022/05/16 06:42:33;;;;;;;9.00;5.13;;;;;;;;;;758608;183;924404;-69
2022/05/16 06:44:59;;;;;;;11.93;5.68;;;;;;;;;;764219;183;918931;-68
2022/05/16 06:47:25;;;;;;;13.47;5.53;;;;;;;;;;750161;184;920029;-69
2022/05/16 06:49:51;;;;;;;11.53;4.83;;;;;;;;;;751658;183;919362;-70
2022/05/16 06:52:17;;;;;;;13.55;5.28;;;;;;;;;;757356;183;919822;-70
2022/05/16 06:54:43;;;;;;;12.37;4.53;;;;;;;;;;758116;183;919941;-69
2022/05/16 06:57:09;;;;;;;12.43;5.30;;;;;;;;;;757236;183;919215;-70
2022/05/16 06:59:35;;;;;;;11.73;5.47;;;;;;;;;;762284;183;633586;-71
2022/05/16 07:02:01;;;;;;;12.70;4.73;;;;;;;;;;759584;185;617917;-71
2022/05/16 07:04:26;;;;;;;8.23;4.23;;;;;;;;;;761711;183;638375;-72
2022/05/16 07:06:52;;;;;;;10.60;5.20;;;;;;;;;;760041;183;953663;-70
2022/05/16 07:09:18;;;;;;;12.60;4.93;;;;;;;;;;762974;183;919211;-71
2022/05/16 07:11:44;;;;;;;5.03;3.73;;;;;;;;;;759186;183;918828;-69
2022/05/16 07:14:10;;;;;;;7.93;5.13;;;;;;;;;;757374;183;920324;-71
2022/05/16 07:16:36;;;;;;;9.10;4.87;;;;;;;;;;766716;183;626134;-71
2022/05/16 07:19:01;;;;;;;6.40;4.20;;;;;;;;;;761522;183;630267;-72
2022/05/16 07:21:27;;;;;;;7.50;4.60;;;;;;;;;;761511;183;617448;-75
2022/05/16 07:23:53;;;;;;;11.33;5.50;;;;;;;;;;759879;183;716458;-71
2022/05/16 07:28:52;;;;;;;5.27;3.53;;;;;;;;;;755807;183;918707;-74
2022/05/16 07:31:18;;;;;;;8.30;4.07;;;;;;;;;;760514;183;929848;-74
2022/05/16 07:33:43;;;;;;;6.67;4.17;;;;;;;;;;763370;183;917147;-70
2022/05/16 07:36:09;;;;;;;8.40;4.10;;;;;;;;;;758635;184;916447;-71
2022/05/16 07:38:35;;;;;;;11.13;3.77;;;;;;;;;;760447;183;912302;-74
2022/05/16 07:41:01;;;;;;;12.80;4.67;;;;;;;;;;751827;183;912097;-71
2022/05/16 07:43:27;;;;;;;6.10;3.50;;;;;;;;;;759347;184;912044;-72
2022/05/16 07:45:55;;;;;;;9.07;3.83;;;;;;;;;;755316;184;919414;-72
2022/05/16 07:48:20;;;;;;;10.57;4.47;;;;;;;;;;758738;183;918823;-71
2022/05/16 07:50:48;;;;;;;8.03;3.90;;;;;;;;;;763473;184;918549;-71
2022/05/16 07:53:12;;;;;;;7.57;4.47;;;;;;;;;;759258;184;909473;-74
2022/05/16 07:55:38;;;;;;;6.85;4.05;;;;;;;;;;756983;184;919120;-73
2022/05/16 07:58:04;;;;;;;6.80;3.70;;;;;;;;;;761654;183;1015645;-72
2022/05/16 08:00:30;;;;;;;5.93;2.70;;;;;;;;;;762708;183;919185;-76
2022/05/16 08:02:56;;;;;;;7.30;3.00;;;;;;;;;;757551;184;918140;-73
2022/05/16 08:05:21;;;;;;;4.70;2.90;;;;;;;;;;760230;183;918574;-73
2022/05/16 08:12:51;;;;;;;7.60;2.57;;;;;;;;;;759607;182;923077;-76
2022/05/16 08:15:16;;;;;;;7.00;3.43;;;;;;;;;;759073;183;918491;-72
2022/05/16 08:17:42;;;;;;;11.67;3.80;;;;;;;;;;764933;183;816999;-73
2022/05/16 08:20:09;;;;;;;10.03;3.70;;;;;;;;;;760003;183;918926;-72
2022/05/16 08:22:34;;;;;;;11.23;3.57;;;;;;;;;;748644;183;919192;-73
2022/05/16 08:25:00;;;;;;;7.73;2.97;;;;;;;;;;761759;183;919085;-76
2022/05/16 08:27:26;;;;;;;7.37;2.50;;;;;;;;;;757992;183;919397;-73
2022/05/16 08:29:52;;;;;;;8.00;2.87;;;;;;;;;;756319;183;918780;-75
2022/05/16 08:32:19;;;;;;;8.50;3.47;;;;;;;;;;764844;183;817337;-74
2022/05/16 08:34:44;;;;;;;6.40;3.23;;;;;;;;;;759724;183;816032;-74
2022/05/16 08:42:14;;;;;;;5.73;2.20;;;;;;;;;;764273;183;859426;-73
2022/05/16 08:44:48;;;;;;;10.73;3.17;;;;;;;;;;759334;183;1023024;-76
2022/05/16 08:47:14;;;;;;;8.30;3.00;;;;;;;;;;758759;184;918577;-77
2022/05/16 08:49:41;;;;;;;7.10;2.90;;;;;;;;;;756895;183;919179;-74
2022/05/16 08:52:07;;;;;;;8.60;3.03;;;;;;;;;;763420;184;917957;-79
2022/05/16 08:54:33;;;;;;;6.30;2.87;;;;;;;;;;758435;183;920235;-77
2022/05/16 08:56:59;;;;;;;5.10;2.70;;;;;;;;;;756322;183;923941;-75
2022/05/16 08:59:25;;;;;;;8.47;2.97;;;;;;;;;;758437;182;1021924;-73
2022/05/16 09:01:52;;;;;;;7.12;3.67;;;;;;;;;;761136;183;930534;-80
2022/05/16 09:04:26;;;;;;;6.23;3.10;;;;;;;;;;757462;183;898311;-76
2022/05/16 09:07:04;;;;;;;4.50;2.30;;;;;;;;;;755871;183;917550;-81
2022/05/16 09:09:29;;;;;;;5.90;2.77;;;;;;;;;;757432;183;922164;-76
2022/05/16 09:11:55;;;;;;;4.70;2.60;;;;;;;;;;763760;183;921872;-73
2022/05/16 09:14:34;;;;;;;8.93;2.60;;;;;;;;;;760626;183;919020;-74
2022/05/16 09:17:00;;;;;;;7.37;2.47;;;;;;;;;;751542;184;917354;-76
2022/05/16 09:19:28;;;;;;;4.83;1.77;;;;;;;;;;755770;184;919199;-79
2022/05/16 09:21:54;;;;;;;7.00;2.53;;;;;;;;;;763813;181;818246;-76
2022/05/16 09:24:22;;;;;;;7.63;3.23;;;;;;;;;;763374;181;818008;-78
2022/05/16 09:26:49;;;;;;;6.23;2.70;;;;;;;;;;749176;183;962519;-77
2022/05/16 09:29:33;;;;;;;4.83;2.43;;;;;;;;;;759390;183;811654;-75
2022/05/16 09:32:01;;;;;;;6.40;3.20;;;;;;;;;;762656;182;714006;-79
2022/05/16 09:34:26;;;;;;;5.90;3.10;;;;;;;;;;765528;183;815393;-75
2022/05/16 09:36:52;;;;;;;6.90;2.70;;;;;;;;;;759040;183;911927;-75
2022/05/16 09:39:19;;;;;;;16.93;2.63;;;;;;;;;;757128;183;919328;-77
2022/05/16 09:41:52;;;;;;;6.68;2.65;;;;;;;;;;760761;183;818260;-74
2022/05/16 09:44:23;;;;;;;7.20;3.00;;;;;;;;;;753120;186;936931;-83
2022/05/16 09:46:49;;;;;;;8.45;2.70;;;;;;;;;;759208;183;840453;-79
2022/05/16 09:49:19;;;;;;;8.40;2.80;;;;;;;;;;757598;183;915708;-83
2022/05/16 09:51:46;;;;;;;7.63;3.00;;;;;;;;;;757428;183;915145;-85
2022/05/16 09:54:11;;;;;;;6.10;2.33;;;;;;;;;;765022;183;621777;-81
2022/05/16 09:56:37;;;;;;;4.23;2.30;;;;;;;;;;756739;184;809109;-79
2022/05/16 09:59:04;;;;;;;5.90;3.00;;;;;;;;;;756576;184;926429;-78
2022/05/16 10:01:32;;;;;;;9.40;2.73;;;;;;;;;;763383;183;814128;-86
2022/05/16 10:03:58;;;;;;;5.67;2.67;;;;;;;;;;763460;183;835258;-79
2022/05/16 10:06:26;;;;;;;7.47;2.70;;;;;;;;;;760435;183;1018749;-82
2022/05/16 10:08:52;;;;;;;5.40;2.90;;;;;;;;;;764512;181;719759;-82
2022/05/16 10:11:18;;;;;;;7.13;3.80;;;;;;;;;;765617;176;950503;-81
2022/05/16 10:13:44;;;;;;;7.97;2.93;;;;;;;;;;757256;181;1223254;-82
2022/05/16 10:16:10;;;;;;;10.10;3.00;;;;;;;;;;757127;184;914572;-82
2022/05/16 10:18:36;;;;;;;6.70;2.60;;;;;;;;;;764481;184;879218;-87
2022/05/16 10:21:03;;;;;;;7.50;2.87;;;;;;;;;;762879;183;820989;-85
2022/05/16 10:23:28;;;;;;;10.43;3.60;;;;;;;;;;761127;183;849375;-79
2022/05/16 10:25:55;;;;;;;15.47;5.63;;;;;;;;;;762329;183;915755;-77
2022/05/16 10:28:24;;;;;;;15.60;2.90;;;;;;;;;;753709;184;985096;-80
2022/05/16 10:33:25;;;;;;;9.30;3.40;;;;;;;;;;736204;189;1031744;-86
2022/05/16 10:36:00;;;;;;;6.17;2.87;;;;;;;;;;759378;183;929269;-84
2022/05/16 10:38:32;;;;;;;7.47;2.83;;;;;;;;;;761616;183;816768;-84
2022/05/16 10:40:58;;;;;;;5.33;3.00;;;;;;;;;;768627;183;709626;-85
2022/05/16 10:43:30;;;;;;;10.00;3.20;;;;;;;;;;757381;183;922364;-80
2022/05/16 10:45:55;;;;;;;7.30;3.17;;;;;;;;;;756336;183;919073;-79
2022/05/16 10:48:25;;;;;;;5.97;3.30;;;;;;;;;;765413;183;918431;-82
2022/05/16 10:50:50;;;;;;;8.60;4.30;;;;;;;;;;759364;183;814559;-80
2022/05/16 10:53:25;;;;;;;11.10;2.87;;;;;;;;;;753203;183;939973;-80
2022/05/16 10:55:57;;;;;;;5.25;2.10;;;;;;;;;;759170;184;988736;-84
2022/05/16 10:58:27;;;;;;;8.87;2.57;;;;;;;;;;760000;184;919755;-83
2022/05/16 11:00:57;;;;;;;6.57;2.67;;;;;;;;;;763374;184;815953;-79
2022/05/16 11:03:29;;;;;;;5.90;2.90;;;;;;;;;;755998;183;1093226;-83
2022/05/16 11:05:59;;;;;;;10.20;2.80;;;;;;;;;;759779;182;1046401;-81
2022/05/16 11:08:32;;;;;;;6.47;2.83;;;;;;;;;;759005;183;918089;-90
2022/05/16 11:10:59;;;;;;;5.60;2.70;;;;;;;;;;767587;183;856594;-79
2022/05/16 11:13:29;;;;;;;9.27;3.43;;;;;;;;;;763089;183;918756;-81
2022/05/16 11:15:55;;;;;;;9.80;2.60;;;;;;;;;;752666;185;916893;-79
2022/05/16 11:18:21;;;;;;;8.00;2.70;;;;;;;;;;753764;186;919572;-81
2022/05/16 11:20:48;;;;;;;7.87;3.03;;;;;;;;;;757448;185;919394;-84
2022/05/16 11:23:19;;;;;;;7.00;3.40;;;;;;;;;;760067;183;919735;-83
2022/05/16 11:25:45;;;;;;;7.30;2.70;;;;;;;;;;762340;184;918719;-79
2022/05/16 11:28:16;;;;;;;13.90;3.20;;;;;;;;;;755550;183;919418;-76
2022/05/16 11:30:44;;;;;;;7.63;3.40;;;;;;;;;;762681;184;937941;-85
2022/05/16 11:33:22;;;;;;;4.50;2.33;;;;;;;;;;760089;183;920683;-86
2022/05/16 11:35:48;;;;;;;8.13;3.33;;;;;;;;;;762795;183;817063;-82
2022/05/16 11:38:15;;;;;;;5.43;2.45;;;;;;;;;;760210;182;910335;-79
2022/05/16 11:40:47;;;;;;;7.50;2.40;;;;;;;;;;763234;183;918769;-80
2022/05/16 11:43:17;;;;;;;7.20;2.63;;;;;;;;;;760216;183;807009;-82
2022/05/16 11:45:49;;;;;;;9.73;2.50;;;;;;;;;;757044;183;920233;-81
2022/05/16 11:48:20;;;;;;;7.37;3.10;;;;;;;;;;761781;182;817333;-79
2022/05/16 11:50:48;;;;;;;7.23;2.57;;;;;;;;;;757532;183;1163284;-85
2022/05/16 11:53:20;;;;;;;7.63;2.63;;;;;;;;;;765617;183;815947;-78
2022/05/16 12:00:50;;;;;;;6.90;2.50;;;;;;;;;;760765;183;919392;-81
2022/05/16 12:03:16;;;;;;;6.00;2.20;;;;;;;;;;763714;183;816349;-80
2022/05/16 12:05:40;;;;;;;6.90;2.33;;;;;;;;;;753240;183;917834;-79
2022/05/16 12:08:15;;;;;;;11.17;2.87;;;;;;;;;;756833;183;918475;-82
2022/05/16 12:10:55;;;;;;;9.70;3.40;;;;;;;;;;758365;184;923898;-83
2022/05/16 12:13:23;;;;;;;10.90;2.83;;;;;;;;;;759117;183;935033;-81
2022/05/16 12:15:49;;;;;;;4.57;2.57;;;;;;;;;;764294;183;822294;-79
2022/05/16 12:18:22;;;;;;;14.50;3.10;;;;;;;;;;751410;183;817201;-87
2022/05/16 12:21:03;;;;;;;6.40;2.80;;;;;;;;;;753513;184;914204;-79
2022/05/16 12:23:34;;;;;;;5.73;3.33;;;;;;;;;;758726;183;918931;-79
2022/05/16 12:26:00;;;;;;;7.80;2.93;;;;;;;;;;756612;183;1032685;-83
2022/05/16 12:28:30;;;;;;;4.77;3.07;;;;;;;;;;764227;183;916956;-82
2022/05/16 12:30:53;;;;;;;12.03;3.10;;;;;;;;;;756380;184;819425;-80
2022/05/16 12:33:33;;;;;;;6.47;3.20;;;;;;;;;;758703;183;825471;-81
2022/05/16 12:35:59;;;;;;;9.00;2.53;;;;;;;;;;760312;183;1018708;-87
2022/05/16 12:38:26;;;;;;;12.20;2.97;;;;;;;;;;763390;183;919552;-82
2022/05/16 12:41:07;;;;;;;5.67;2.97;;;;;;;;;;757712;184;919571;-83
2022/05/16 12:43:39;;;;;;;9.18;2.90;;;;;;;;;;746246;184;916274;-78
2022/05/16 12:46:11;;;;;;;7.40;3.30;;;;;;;;;;757043;183;906992;-85
2022/05/16 12:48:53;;;;;;;8.77;2.43;;;;;;;;;;762966;182;625844;-81
2022/05/16 12:51:34;;;;;;;8.53;3.07;;;;;;;;;;759371;182;945200;-83
2022/05/16 12:54:01;;;;;;;6.50;2.97;;;;;;;;;;759281;182;826350;-85
2022/05/16 12:56:31;;;;;;;8.17;3.20;;;;;;;;;;762023;184;957761;-82
2022/05/16 12:58:59;;;;;;;7.73;2.93;;;;;;;;;;757710;185;830858;-76
2022/05/16 13:01:25;;;;;;;10.43;2.30;;;;;;;;;;749474;186;858651;-78
2022/05/16 13:03:52;;;;;;;9.53;3.10;;;;;;;;;;745791;186;867116;-81
2022/05/16 13:06:37;;;;;;;5.27;2.63;;;;;;;;;;765143;183;922243;-85
2022/05/16 13:09:19;;;;;;;6.40;2.90;;;;;;;;;;762373;183;922123;-81
2022/05/16 13:11:47;;;;;;;6.60;2.87;;;;;;;;;;761790;183;941800;-77
2022/05/16 13:14:12;;;;;;;4.80;3.07;;;;;;;;;;763726;183;919627;-80
2022/05/16 13:16:38;;;;;;;8.90;2.80;;;;;;;;;;760062;183;816794;-78
2022/05/16 13:19:11;;;;;;;9.00;2.67;;;;;;;;;;759688;183;796243;-82
2022/05/16 13:21:37;;;;;;;5.20;2.63;;;;;;;;;;764644;184;709035;-79
2022/05/16 13:24:06;;;;;;;8.10;2.60;;;;;;;;;;764536;183;630549;-76
2022/05/16 13:31:39;;;;;;;5.40;2.90;;;;;;;;;;766043;183;629898;-80
2022/05/16 13:34:05;;;;;;;8.20;3.33;;;;;;;;;;771760;181;669611;-80
2022/05/16 13:36:31;;;;;;;15.60;2.90;;;;;;;;;;755319;183;756972;-85
2022/05/16 13:38:57;;;;;;;4.87;2.13;;;;;;;;;;754059;184;631066;-85
2022/05/16 13:41:23;;;;;;;5.47;2.30;;;;;;;;;;768034;183;640622;-83
2022/05/16 13:43:50;;;;;;;6.20;3.00;;;;;;;;;;751088;185;815932;-82
2022/05/16 13:46:15;;;;;;;5.40;2.73;;;;;;;;;;756189;184;919049;-77
2022/05/16 13:48:42;;;;;;;11.27;3.10;;;;;;;;;;763690;183;745098;-79
2022/05/16 13:51:07;;;;;;;7.13;3.80;;;;;;;;;;761611;183;816743;-85
2022/05/16 13:53:32;;;;;;;8.13;2.92;;;;;;;;;;761280;183;886591;-83
2022/05/16 13:55:58;;;;;;;9.70;3.47;;;;;;;;;;763387;183;825190;-84
2022/05/16 13:58:26;;;;;;;7.97;3.10;;;;;;;;;;739906;183;920193;-85
2022/05/16 14:00:52;;;;;;;4.63;2.60;;;;;;;;;;737719;187;640344;-83
2022/05/16 14:03:20;;;;;;;7.00;2.90;;;;;;;;;;758288;183;712499;-78
2022/05/16 14:05:46;;;;;;;5.27;3.30;;;;;;;;;;767517;183;712277;-84
2022/05/16 14:08:18;;;;;;;6.03;2.87;;;;;;;;;;753144;184;797372;-79
2022/05/16 14:10:43;;;;;;;7.20;2.83;;;;;;;;;;760195;183;815053;-81
2022/05/16 14:13:09;;;;;;;7.07;2.80;;;;;;;;;;762361;183;715036;-85
2022/05/16 14:15:34;;;;;;;5.70;2.77;;;;;;;;;;768478;183;979619;-78
2022/05/16 14:18:03;;;;;;;5.87;2.60;;;;;;;;;;757280;183;654430;-80
2022/05/16 14:20:28;;;;;;;5.27;2.80;;;;;;;;;;759473;183;623802;-79
2022/05/16 14:22:54;;;;;;;8.23;3.67;;;;;;;;;;762997;183;637929;-81
2022/05/16 14:25:25;;;;;;;17.83;3.50;;;;;;;;;;765165;183;816050;-81
2022/05/16 14:27:56;;;;;;;8.33;2.53;;;;;;;;;;752119;184;679445;-82
2022/05/16 14:30:22;;;;;;;8.03;2.47;;;;;;;;;;757202;184;920788;-85
2022/05/16 14:32:48;;;;;;;13.13;4.40;;;;;;;;;;766778;183;629721;-78
2022/05/16 14:35:14;;;;;;;5.60;2.20;;;;;;;;;;761184;183;625949;-77
2022/05/16 14:37:39;;;;;;;6.23;3.10;;;;;;;;;;762556;183;636084;-80
2022/05/16 14:40:09;;;;;;;7.63;2.80;;;;;;;;;;767770;183;843167;-79
2022/05/16 14:42:33;;;;;;;7.33;2.70;;;;;;;;;;761661;183;640001;-81
2022/05/16 14:45:18;;;;;;;6.30;2.97;;;;;;;;;;760188;183;915089;-81
2022/05/16 14:47:44;;;;;;;5.83;2.63;;;;;;;;;;757647;183;690250;-81
2022/05/16 14:50:10;;;;;;;8.32;2.70;;;;;;;;;;761719;183;924480;-82
2022/05/16 14:52:36;;;;;;;7.83;2.70;;;;;;;;;;756683;183;710517;-81
2022/05/16 14:55:05;;;;;;;6.53;3.10;;;;;;;;;;759313;183;645808;-82
2022/05/16 14:57:30;;;;;;;8.27;2.70;;;;;;;;;;759822;184;625113;-84
2022/05/16 14:59:56;;;;;;;5.80;2.53;;;;;;;;;;767344;183;626929;-82
2022/05/16 15:04:54;;;;;;;4.30;2.23;;;;;;;;;;763690;183;661934;-83